Time;durP1;ratioP1;P1;durP2;ratioP2;P2;SDS_P1;SDS_P2;PMS_P1;PMS_P2;Temp;Humidity;BMP_temperature;BMP_pressure;BME280_temperature;BME280_humidity;BME280_pressure;Samples;Min_cycle;Max_cycle;Signal;HPM_P1;HPM_P2
2022/10/12 00:00:08;;;;;;;5.68;2.78;;;;;;;;;;5023359;28;20049;-78
2022/10/12 00:02:34;;;;;;;5.32;3.10;;;;;;;;;;5026586;28;20045;-78
2022/10/12 00:05:00;;;;;;;4.70;3.30;;;;;;;;;;5024123;28;20439;-77
2022/10/12 00:07:26;;;;;;;6.93;3.10;;;;;;;;;;5012242;28;20077;-77
2022/10/12 00:09:52;;;;;;;6.75;3.20;;;;;;;;;;5029184;28;20063;-77
2022/10/12 00:12:18;;;;;;;4.68;3.17;;;;;;;;;;5029294;28;20508;-77
2022/10/12 00:14:44;;;;;;;8.18;3.65;;;;;;;;;;5017322;28;20136;-77
2022/10/12 00:17:10;;;;;;;4.28;3.47;;;;;;;;;;5022762;28;20054;-77
2022/10/12 00:19:36;;;;;;;9.18;3.42;;;;;;;;;;5028178;28;20459;-77
2022/10/12 00:22:05;;;;;;;7.38;3.75;;;;;;;;;;5022152;28;20049;-76
2022/10/12 00:24:31;;;;;;;6.88;3.60;;;;;;;;;;5021719;28;20083;-75
2022/10/12 00:26:57;;;;;;;6.40;3.53;;;;;;;;;;5024106;28;20042;-75
2022/10/12 00:29:23;;;;;;;6.03;3.78;;;;;;;;;;5017561;28;20083;-75
2022/10/12 00:31:49;;;;;;;8.70;3.63;;;;;;;;;;5025228;28;20055;-75
2022/10/12 00:34:15;;;;;;;7.22;3.83;;;;;;;;;;5020447;28;20176;-75
2022/10/12 00:36:42;;;;;;;5.25;3.88;;;;;;;;;;5028451;28;20037;-75
2022/10/12 00:39:09;;;;;;;6.05;3.78;;;;;;;;;;5018296;28;20375;-75
2022/10/12 00:41:37;;;;;;;9.77;3.90;;;;;;;;;;5024455;28;20042;-75
2022/10/12 00:44:03;;;;;;;7.30;3.38;;;;;;;;;;5022719;28;20052;-75
2022/10/12 00:46:29;;;;;;;6.47;3.80;;;;;;;;;;5020025;28;20063;-75
2022/10/12 00:49:16;;;;;;;5.38;3.88;;;;;;;;;;5026392;28;20484;-75
2022/10/12 00:51:43;;;;;;;5.30;3.88;;;;;;;;;;5023587;28;20080;-75
2022/10/12 00:54:11;;;;;;;6.05;3.80;;;;;;;;;;5018003;28;20425;-75
2022/10/12 00:56:39;;;;;;;6.80;3.28;;;;;;;;;;5018194;28;20060;-75
2022/10/12 00:59:08;;;;;;;5.28;3.70;;;;;;;;;;5021645;28;20540;-75
2022/10/12 01:01:35;;;;;;;5.93;3.55;;;;;;;;;;5024154;28;20041;-75
2022/10/12 01:04:02;;;;;;;6.70;3.70;;;;;;;;;;5023681;28;20053;-75
2022/10/12 01:06:29;;;;;;;4.95;3.75;;;;;;;;;;5017725;28;20056;-75
2022/10/12 01:08:55;;;;;;;6.78;3.70;;;;;;;;;;5018277;28;20045;-75
2022/10/12 01:11:21;;;;;;;4.32;3.50;;;;;;;;;;5019571;28;20045;-75
2022/10/12 01:13:47;;;;;;;6.35;3.80;;;;;;;;;;5020464;28;20434;-75
2022/10/12 01:16:13;;;;;;;7.10;4.32;;;;;;;;;;5027374;28;20046;-76
2022/10/12 01:18:46;;;;;;;5.90;3.88;;;;;;;;;;5024081;28;20048;-75
2022/10/12 01:21:19;;;;;;;7.07;4.07;;;;;;;;;;5028634;28;20056;-75
2022/10/12 01:23:51;;;;;;;7.85;4.32;;;;;;;;;;5027238;28;20083;-75
2022/10/12 01:26:17;;;;;;;5.03;3.70;;;;;;;;;;5025732;28;20045;-75
2022/10/12 01:28:58;;;;;;;7.50;4.05;;;;;;;;;;5030110;28;20038;-75
2022/10/12 01:31:33;;;;;;;7.72;4.38;;;;;;;;;;5027962;28;20059;-75
2022/10/12 01:34:01;;;;;;;5.65;4.05;;;;;;;;;;5026340;28;20572;-75
2022/10/12 01:36:27;;;;;;;7.53;3.88;;;;;;;;;;5027207;28;20589;-75
2022/10/12 01:39:07;;;;;;;6.93;3.72;;;;;;;;;;5029297;28;20197;-75
2022/10/12 01:41:46;;;;;;;4.95;3.85;;;;;;;;;;5028185;28;20088;-75
2022/10/12 01:44:19;;;;;;;8.25;4.28;;;;;;;;;;5026269;28;20049;-75
2022/10/12 01:46:45;;;;;;;6.40;3.95;;;;;;;;;;5029081;28;20045;-75
2022/10/12 01:49:17;;;;;;;8.20;4.35;;;;;;;;;;5027334;28;20808;-75
2022/10/12 01:51:58;;;;;;;5.95;4.25;;;;;;;;;;5028655;28;20041;-75
2022/10/12 01:54:33;;;;;;;8.75;4.30;;;;;;;;;;5023883;28;20132;-75
2022/10/12 01:57:11;;;;;;;6.65;4.57;;;;;;;;;;5029533;28;20427;-75
2022/10/12 01:59:43;;;;;;;8.43;4.80;;;;;;;;;;5024569;28;20044;-75
2022/10/12 02:02:15;;;;;;;8.48;4.80;;;;;;;;;;5027754;28;20061;-75
2022/10/12 02:04:56;;;;;;;9.40;4.70;;;;;;;;;;5026811;28;20147;-75
2022/10/12 02:07:25;;;;;;;8.63;5.00;;;;;;;;;;5026575;28;20050;-75
2022/10/12 02:09:53;;;;;;;6.57;4.25;;;;;;;;;;5030640;28;20073;-75
2022/10/12 02:12:21;;;;;;;7.78;4.05;;;;;;;;;;5029972;28;20049;-75
2022/10/12 02:14:53;;;;;;;8.68;4.55;;;;;;;;;;5027540;28;20046;-75
2022/10/12 02:17:20;;;;;;;7.15;4.40;;;;;;;;;;5029843;28;20050;-75
2022/10/12 02:19:50;;;;;;;6.90;4.25;;;;;;;;;;5029590;28;20538;-74
2022/10/12 02:22:17;;;;;;;7.30;4.25;;;;;;;;;;5027087;28;20556;-75
2022/10/12 02:24:45;;;;;;;7.25;4.80;;;;;;;;;;5030497;28;20489;-75
2022/10/12 02:27:13;;;;;;;7.25;4.63;;;;;;;;;;5025880;28;20558;-75
2022/10/12 02:29:41;;;;;;;6.50;4.50;;;;;;;;;;5026284;28;20045;-75
2022/10/12 02:32:10;;;;;;;11.05;5.10;;;;;;;;;;5025327;28;20037;-75
2022/10/12 02:35:02;;;;;;;7.32;4.68;;;;;;;;;;5025225;28;20504;-75
2022/10/12 02:37:34;;;;;;;9.15;5.25;;;;;;;;;;5024488;28;20356;-75
2022/10/12 02:40:09;;;;;;;10.05;5.53;;;;;;;;;;5030256;28;20057;-75
2022/10/12 02:42:41;;;;;;;8.23;5.70;;;;;;;;;;5021734;28;20060;-75
2022/10/12 02:45:09;;;;;;;9.93;5.87;;;;;;;;;;5025063;28;20076;-75
2022/10/12 02:47:36;;;;;;;9.93;6.25;;;;;;;;;;5029236;28;20504;-75
2022/10/12 02:50:07;;;;;;;11.27;6.35;;;;;;;;;;5029461;28;20045;-75
2022/10/12 02:52:33;;;;;;;11.98;6.32;;;;;;;;;;5027877;28;20052;-75
2022/10/12 02:54:59;;;;;;;11.85;6.50;;;;;;;;;;5030674;28;20053;-75
2022/10/12 02:57:28;;;;;;;13.30;6.30;;;;;;;;;;5025851;28;20400;-75
2022/10/12 02:59:54;;;;;;;11.77;6.20;;;;;;;;;;5030323;28;20041;-75
2022/10/12 03:02:20;;;;;;;12.13;6.70;;;;;;;;;;5023773;28;20509;-75
2022/10/12 03:04:47;;;;;;;9.30;5.60;;;;;;;;;;5028852;28;20064;-75
2022/10/12 03:07:13;;;;;;;9.18;6.20;;;;;;;;;;5015127;28;20054;-75
2022/10/12 03:09:39;;;;;;;11.80;5.70;;;;;;;;;;5025224;28;20038;-75
2022/10/12 03:12:05;;;;;;;12.27;6.10;;;;;;;;;;5024846;28;20045;-75
2022/10/12 03:14:32;;;;;;;11.38;5.72;;;;;;;;;;5029432;28;20375;-75
2022/10/12 03:17:07;;;;;;;11.13;5.60;;;;;;;;;;5025437;28;20045;-75
2022/10/12 03:19:34;;;;;;;8.60;6.28;;;;;;;;;;5027615;28;20046;-75
2022/10/12 03:22:00;;;;;;;10.60;5.53;;;;;;;;;;5029540;28;20050;-75
2022/10/12 03:24:28;;;;;;;9.20;5.55;;;;;;;;;;5027739;28;20044;-75
2022/10/12 03:26:54;;;;;;;8.60;5.28;;;;;;;;;;5027442;28;20049;-75
2022/10/12 03:29:20;;;;;;;9.02;5.30;;;;;;;;;;5027216;28;20520;-75
2022/10/12 03:31:46;;;;;;;10.85;5.15;;;;;;;;;;5025549;28;20131;-75
2022/10/12 03:34:12;;;;;;;10.80;5.55;;;;;;;;;;5026454;28;20048;-75
2022/10/12 03:36:38;;;;;;;11.30;5.25;;;;;;;;;;5026029;28;20512;-75
2022/10/12 03:39:04;;;;;;;8.52;5.15;;;;;;;;;;5028231;28;20049;-75
2022/10/12 03:41:30;;;;;;;7.93;4.78;;;;;;;;;;5028769;28;20508;-75
2022/10/12 03:43:57;;;;;;;8.52;4.93;;;;;;;;;;5023936;28;20041;-75
2022/10/12 03:46:23;;;;;;;7.25;4.32;;;;;;;;;;5025497;28;20056;-76
2022/10/12 03:48:49;;;;;;;10.38;4.85;;;;;;;;;;5027413;28;20052;-75
2022/10/12 03:51:15;;;;;;;10.75;4.70;;;;;;;;;;5019786;28;20045;-75
2022/10/12 03:53:41;;;;;;;9.18;4.90;;;;;;;;;;5023409;28;20060;-75
2022/10/12 03:56:07;;;;;;;8.40;4.35;;;;;;;;;;5025570;28;20045;-75
2022/10/12 03:58:33;;;;;;;8.05;4.70;;;;;;;;;;5026974;28;20045;-75
2022/10/12 04:00:59;;;;;;;7.68;4.57;;;;;;;;;;5023838;28;20034;-75
2022/10/12 04:03:25;;;;;;;11.43;5.05;;;;;;;;;;5026010;28;20689;-75
2022/10/12 04:06:09;;;;;;;8.18;4.53;;;;;;;;;;5027463;28;20045;-75
2022/10/12 04:08:35;;;;;;;8.57;4.30;;;;;;;;;;5025542;28;20558;-75
2022/10/12 04:11:01;;;;;;;10.82;5.00;;;;;;;;;;5026190;28;20049;-75
2022/10/12 04:13:27;;;;;;;8.80;4.45;;;;;;;;;;5020692;28;20587;-75
2022/10/12 04:15:53;;;;;;;8.63;4.65;;;;;;;;;;5025655;28;20045;-75
2022/10/12 04:18:19;;;;;;;10.45;4.93;;;;;;;;;;5020691;28;20045;-75
2022/10/12 04:20:49;;;;;;;9.85;5.10;;;;;;;;;;5029096;28;20034;-75
2022/10/12 04:23:15;;;;;;;8.90;4.95;;;;;;;;;;5022477;28;20103;-75
2022/10/12 04:25:44;;;;;;;7.85;5.30;;;;;;;;;;5024923;28;20037;-75
2022/10/12 04:28:10;;;;;;;10.63;5.75;;;;;;;;;;5023904;28;20083;-75
2022/10/12 04:30:36;;;;;;;7.18;5.32;;;;;;;;;;5027446;28;20092;-75
2022/10/12 04:33:02;;;;;;;8.80;5.70;;;;;;;;;;5028539;28;20555;-75
2022/10/12 04:35:28;;;;;;;8.85;5.43;;;;;;;;;;5022968;28;20141;-75
2022/10/12 04:37:54;;;;;;;11.63;6.57;;;;;;;;;;5026796;28;20053;-75
2022/10/12 04:40:20;;;;;;;7.90;5.88;;;;;;;;;;5026385;28;20099;-75
2022/10/12 04:42:46;;;;;;;9.23;5.25;;;;;;;;;;5027187;28;20470;-76
2022/10/12 04:45:15;;;;;;;10.45;5.63;;;;;;;;;;5024409;28;20041;-75
2022/10/12 04:47:41;;;;;;;10.75;5.50;;;;;;;;;;5025725;28;20045;-75
2022/10/12 04:50:07;;;;;;;10.38;5.30;;;;;;;;;;5022407;28;20477;-75
2022/10/12 04:52:33;;;;;;;10.48;5.45;;;;;;;;;;5027504;28;20403;-75
2022/10/12 04:54:59;;;;;;;8.88;6.45;;;;;;;;;;5025411;28;20053;-76
2022/10/12 04:57:25;;;;;;;8.20;5.00;;;;;;;;;;5023491;28;20068;-75
2022/10/12 04:59:51;;;;;;;9.88;5.97;;;;;;;;;;5025028;28;20144;-75
2022/10/12 05:02:17;;;;;;;11.75;5.60;;;;;;;;;;5021355;28;20136;-75
2022/10/12 05:04:43;;;;;;;9.43;5.45;;;;;;;;;;5025684;28;20401;-75
2022/10/12 05:07:09;;;;;;;7.95;5.28;;;;;;;;;;5019847;28;20056;-76
2022/10/12 05:09:35;;;;;;;11.02;5.65;;;;;;;;;;5016014;28;20096;-75
2022/10/12 05:12:04;;;;;;;11.98;5.55;;;;;;;;;;5027506;28;20092;-75
2022/10/12 05:14:31;;;;;;;11.45;5.13;;;;;;;;;;5024006;28;20060;-76
2022/10/12 05:16:57;;;;;;;10.70;6.10;;;;;;;;;;5025841;28;20108;-75
2022/10/12 05:19:23;;;;;;;11.25;6.45;;;;;;;;;;5025024;28;20045;-75
2022/10/12 05:21:49;;;;;;;9.93;6.45;;;;;;;;;;5029094;28;20048;-75
2022/10/12 05:24:18;;;;;;;14.00;6.80;;;;;;;;;;5030060;28;20097;-75
2022/10/12 05:26:44;;;;;;;11.48;6.32;;;;;;;;;;5035969;28;20037;-75
2022/10/12 05:29:10;;;;;;;12.27;6.10;;;;;;;;;;5024119;28;20053;-75
2022/10/12 05:31:36;;;;;;;11.93;6.30;;;;;;;;;;5025745;28;20045;-75
2022/10/12 05:34:02;;;;;;;11.25;6.35;;;;;;;;;;5023926;28;20136;-75
2022/10/12 05:36:28;;;;;;;10.57;6.60;;;;;;;;;;5023030;28;20041;-75
2022/10/12 05:38:54;;;;;;;9.50;6.68;;;;;;;;;;5021109;28;20034;-76
2022/10/12 05:41:20;;;;;;;10.25;6.95;;;;;;;;;;5016845;28;20081;-75
2022/10/12 05:43:46;;;;;;;11.48;6.82;;;;;;;;;;5022846;28;20056;-75
2022/10/12 05:46:12;;;;;;;12.65;7.03;;;;;;;;;;5021361;28;20084;-75
2022/10/12 05:48:38;;;;;;;11.60;7.10;;;;;;;;;;5027141;28;20056;-74
2022/10/12 05:51:04;;;;;;;10.23;6.93;;;;;;;;;;5029333;28;20050;-75
2022/10/12 05:53:30;;;;;;;13.23;6.97;;;;;;;;;;5020046;28;20610;-75
2022/10/12 05:56:00;;;;;;;12.00;7.30;;;;;;;;;;5028478;28;20700;-75
2022/10/12 05:58:27;;;;;;;11.63;6.80;;;;;;;;;;5022700;28;20084;-75
2022/10/12 06:00:53;;;;;;;11.90;6.90;;;;;;;;;;5020262;28;20046;-75
2022/10/12 06:03:20;;;;;;;13.95;7.05;;;;;;;;;;5019443;28;20394;-75
2022/10/12 06:05:46;;;;;;;9.75;6.68;;;;;;;;;;5027085;28;20049;-75
2022/10/12 06:08:13;;;;;;;10.40;6.40;;;;;;;;;;5025476;28;20046;-75
2022/10/12 06:10:43;;;;;;;9.35;7.10;;;;;;;;;;5031396;28;20110;-75
2022/10/12 06:13:09;;;;;;;12.60;6.60;;;;;;;;;;5023212;28;20049;-75
2022/10/12 06:15:36;;;;;;;8.52;6.38;;;;;;;;;;5027059;28;20453;-75
2022/10/12 06:18:02;;;;;;;9.18;6.28;;;;;;;;;;5030297;28;20179;-75
2022/10/12 06:20:28;;;;;;;8.55;6.78;;;;;;;;;;5026570;28;20556;-75
2022/10/12 06:22:54;;;;;;;10.80;6.70;;;;;;;;;;5025943;28;20044;-75
2022/10/12 06:25:20;;;;;;;8.73;6.32;;;;;;;;;;5030483;28;20054;-75
2022/10/12 06:27:46;;;;;;;11.23;6.40;;;;;;;;;;5031823;28;20370;-75
2022/10/12 06:30:15;;;;;;;10.88;7.13;;;;;;;;;;5026053;28;20106;-75
2022/10/12 06:32:44;;;;;;;11.35;6.60;;;;;;;;;;5025993;28;20053;-75
2022/10/12 06:35:10;;;;;;;12.02;6.63;;;;;;;;;;5024765;28;20058;-75
2022/10/12 06:37:38;;;;;;;13.45;6.68;;;;;;;;;;5027439;28;20067;-75
2022/10/12 06:40:05;;;;;;;11.50;7.30;;;;;;;;;;5027690;28;20129;-75
2022/10/12 06:42:31;;;;;;;11.90;6.45;;;;;;;;;;5021314;28;20045;-75
2022/10/12 06:45:00;;;;;;;11.80;6.47;;;;;;;;;;5028389;28;20055;-75
2022/10/12 06:47:26;;;;;;;9.63;7.00;;;;;;;;;;5024883;28;20057;-75
2022/10/12 06:49:52;;;;;;;10.45;7.13;;;;;;;;;;5028280;28;20048;-75
2022/10/12 06:52:18;;;;;;;11.57;7.63;;;;;;;;;;5028138;28;20515;-75
2022/10/12 06:54:44;;;;;;;11.35;7.65;;;;;;;;;;5025609;28;20522;-75
2022/10/12 06:57:10;;;;;;;10.30;7.18;;;;;;;;;;5027163;28;20115;-75
2022/10/12 06:59:36;;;;;;;12.60;7.97;;;;;;;;;;5031457;28;20048;-76
2022/10/12 07:02:02;;;;;;;13.95;8.13;;;;;;;;;;5029833;28;20128;-76
2022/10/12 07:04:28;;;;;;;13.63;8.02;;;;;;;;;;5032679;28;20108;-75
2022/10/12 07:07:00;;;;;;;10.90;7.78;;;;;;;;;;5031606;28;20041;-75
2022/10/12 07:09:26;;;;;;;14.00;8.50;;;;;;;;;;5024508;28;20052;-76
2022/10/12 07:11:53;;;;;;;14.32;8.25;;;;;;;;;;5023619;28;20046;-76
2022/10/12 07:14:19;;;;;;;16.13;8.65;;;;;;;;;;5026081;28;20042;-76
2022/10/12 07:16:46;;;;;;;12.98;8.65;;;;;;;;;;5030217;28;20045;-75
2022/10/12 07:19:12;;;;;;;13.90;8.77;;;;;;;;;;5030651;28;20053;-76
2022/10/12 07:21:38;;;;;;;14.65;8.50;;;;;;;;;;5015535;28;20042;-76
2022/10/12 07:24:05;;;;;;;15.50;8.57;;;;;;;;;;5027793;28;20053;-75
2022/10/12 07:26:31;;;;;;;15.70;8.80;;;;;;;;;;5015331;28;20037;-76
2022/10/12 07:28:57;;;;;;;11.48;8.32;;;;;;;;;;5027824;28;20401;-76
2022/10/12 07:31:23;;;;;;;11.73;8.48;;;;;;;;;;5024530;28;20068;-76
2022/10/12 07:33:49;;;;;;;10.48;8.70;;;;;;;;;;5028076;28;20045;-76
2022/10/12 07:36:15;;;;;;;16.05;8.93;;;;;;;;;;5028161;28;20045;-75
2022/10/12 07:38:47;;;;;;;15.90;9.02;;;;;;;;;;5028175;28;20512;-76
2022/10/12 07:41:13;;;;;;;14.25;9.32;;;;;;;;;;5020857;28;20150;-75
2022/10/12 07:43:39;;;;;;;14.40;9.68;;;;;;;;;;5019412;28;20049;-76
2022/10/12 07:46:06;;;;;;;11.93;9.10;;;;;;;;;;5026267;28;20397;-76
2022/10/12 07:48:33;;;;;;;14.50;9.63;;;;;;;;;;5011442;28;20045;-76
2022/10/12 07:51:03;;;;;;;13.30;9.10;;;;;;;;;;5013996;28;20049;-76
2022/10/12 07:53:29;;;;;;;15.88;8.80;;;;;;;;;;5012671;28;20053;-75
2022/10/12 07:56:02;;;;;;;13.00;8.68;;;;;;;;;;5020888;28;20054;-76
2022/10/12 07:58:28;;;;;;;10.90;8.85;;;;;;;;;;5026244;28;20053;-75
2022/10/12 08:00:54;;;;;;;13.68;8.63;;;;;;;;;;5023216;28;20045;-76
2022/10/12 08:03:20;;;;;;;11.50;8.45;;;;;;;;;;5027704;28;20049;-76
2022/10/12 08:05:46;;;;;;;13.80;8.23;;;;;;;;;;5025029;28;20118;-76
2022/10/12 08:08:13;;;;;;;13.38;8.73;;;;;;;;;;5025536;28;20045;-76
2022/10/12 08:10:39;;;;;;;13.40;7.85;;;;;;;;;;5028520;28;20053;-76
2022/10/12 08:13:05;;;;;;;17.20;8.43;;;;;;;;;;5027589;28;20053;-76
2022/10/12 08:15:31;;;;;;;11.30;8.30;;;;;;;;;;5021924;28;20048;-76
2022/10/12 08:17:57;;;;;;;11.68;8.25;;;;;;;;;;5029576;28;20507;-76
2022/10/12 08:20:23;;;;;;;13.75;8.98;;;;;;;;;;5022601;28;20053;-76
2022/10/12 08:22:49;;;;;;;10.75;7.80;;;;;;;;;;5027770;28;20041;-76
2022/10/12 08:25:15;;;;;;;12.50;8.25;;;;;;;;;;5028847;28;20041;-76
2022/10/12 08:27:41;;;;;;;12.77;8.27;;;;;;;;;;5025115;28;20061;-76
2022/10/12 08:30:07;;;;;;;12.73;8.10;;;;;;;;;;5024746;28;20041;-77
2022/10/12 08:32:33;;;;;;;12.45;8.10;;;;;;;;;;5023668;28;20045;-76
2022/10/12 08:35:00;;;;;;;14.57;8.55;;;;;;;;;;5026032;28;20049;-77
2022/10/12 08:37:27;;;;;;;12.35;7.50;;;;;;;;;;5025074;28;20054;-77
2022/10/12 08:39:53;;;;;;;13.75;8.18;;;;;;;;;;5024916;28;20053;-77
2022/10/12 08:42:31;;;;;;;15.77;7.25;;;;;;;;;;5024005;28;20056;-77
2022/10/12 08:45:00;;;;;;;12.75;7.40;;;;;;;;;;5027273;28;20141;-77
2022/10/12 08:47:35;;;;;;;13.50;7.40;;;;;;;;;;5019221;28;20336;-78
2022/10/12 08:50:02;;;;;;;15.20;7.97;;;;;;;;;;5021409;28;20037;-77
2022/10/12 08:52:34;;;;;;;10.63;7.55;;;;;;;;;;5028182;28;20260;-78
2022/10/12 08:55:12;;;;;;;;;;;;;;;;;;5027332;28;20046;-78
2022/10/12 08:57:40;;;;;;;13.05;7.25;;;;;;;;;;5023517;28;19987;-79
2022/10/12 09:00:12;;;;;;;12.82;7.32;;;;;;;;;;5024411;28;20497;-79
2022/10/12 09:03:05;;;;;;;13.60;7.20;;;;;;;;;;5027392;28;20049;-79
2022/10/12 09:05:44;;;;;;;14.90;6.75;;;;;;;;;;5026978;28;20097;-78
2022/10/12 09:08:19;;;;;;;11.52;6.90;;;;;;;;;;5021339;28;20045;-79
2022/10/12 09:11:23;;;;;;;11.70;6.78;;;;;;;;;;5026430;28;20041;-79
2022/10/12 09:14:05;;;;;;;11.55;6.88;;;;;;;;;;4954497;28;20051;-79
2022/10/12 09:16:34;;;;;;;13.80;7.27;;;;;;;;;;4970703;28;20058;-79
2022/10/12 09:19:07;;;;;;;13.85;6.50;;;;;;;;;;5012152;28;20303;-79
2022/10/12 09:21:33;;;;;;;10.98;6.20;;;;;;;;;;5033210;28;20048;-78
2022/10/12 09:24:06;;;;;;;12.13;6.53;;;;;;;;;;5028334;28;20045;-79
2022/10/12 09:26:37;;;;;;;12.10;6.43;;;;;;;;;;5020251;28;20537;-79
2022/10/12 09:29:12;;;;;;;13.73;6.60;;;;;;;;;;5027858;28;20049;-79
2022/10/12 09:31:47;;;;;;;12.20;5.50;;;;;;;;;;5027032;28;20045;-79
2022/10/12 09:34:13;;;;;;;11.85;4.97;;;;;;;;;;5019751;28;20053;-79
2022/10/12 09:36:41;;;;;;;9.45;4.38;;;;;;;;;;5019884;28;20469;-80
2022/10/12 09:39:11;;;;;;;12.65;5.07;;;;;;;;;;5024720;28;20049;-80
2022/10/12 09:41:41;;;;;;;9.60;4.05;;;;;;;;;;5023671;28;20402;-80
2022/10/12 09:44:12;;;;;;;10.38;4.45;;;;;;;;;;5031920;28;20051;-80
2022/10/12 09:46:48;;;;;;;10.30;3.70;;;;;;;;;;5029184;28;20053;-80
2022/10/12 09:49:14;;;;;;;11.52;3.85;;;;;;;;;;5032482;28;20104;-80
2022/10/12 09:51:40;;;;;;;8.90;4.18;;;;;;;;;;5022070;28;20069;-80
2022/10/12 09:54:06;;;;;;;9.90;3.92;;;;;;;;;;5027655;28;20056;-80
2022/10/12 09:56:43;;;;;;;10.05;3.70;;;;;;;;;;5031199;28;20048;-80
2022/10/12 09:59:27;;;;;;;12.55;3.67;;;;;;;;;;5029033;28;20136;-80
2022/10/12 10:01:58;;;;;;;11.30;4.22;;;;;;;;;;5026687;28;20045;-80
2022/10/12 10:04:25;;;;;;;8.48;3.85;;;;;;;;;;5028239;28;20049;-80
2022/10/12 10:06:52;;;;;;;10.15;3.47;;;;;;;;;;5030585;28;20033;-80
2022/10/12 10:09:28;;;;;;;14.13;3.63;;;;;;;;;;5030030;28;20046;-81
2022/10/12 10:11:54;;;;;;;9.68;3.65;;;;;;;;;;5028897;28;20049;-80
2022/10/12 10:14:20;;;;;;;11.40;3.20;;;;;;;;;;5028186;28;20493;-80
2022/10/12 10:16:48;;;;;;;11.57;3.25;;;;;;;;;;5031747;28;20091;-80
2022/10/12 10:19:19;;;;;;;10.23;3.63;;;;;;;;;;5029065;28;20037;-80
2022/10/12 10:21:45;;;;;;;7.43;3.20;;;;;;;;;;5027268;28;20095;-80
2022/10/12 10:24:28;;;;;;;9.45;3.75;;;;;;;;;;5024226;28;20049;-80
2022/10/12 10:26:56;;;;;;;9.38;3.50;;;;;;;;;;5028611;28;20045;-80
2022/10/12 10:29:22;;;;;;;12.13;3.10;;;;;;;;;;5028441;28;20046;-80
2022/10/12 10:31:51;;;;;;;8.25;3.20;;;;;;;;;;5028982;28;20390;-80
2022/10/12 10:34:35;;;;;;;9.82;3.40;;;;;;;;;;5022645;28;20096;-79
2022/10/12 10:37:22;;;;;;;7.85;3.17;;;;;;;;;;5046706;28;20036;-80
2022/10/12 10:40:07;;;;;;;7.65;2.95;;;;;;;;;;5031837;28;20079;-80
2022/10/12 10:42:53;;;;;;;10.43;3.90;;;;;;;;;;5025755;28;20084;-80
2022/10/12 10:45:48;;;;;;;8.15;2.53;;;;;;;;;;5025859;28;20043;-80
2022/10/12 10:48:26;;;;;;;10.48;2.92;;;;;;;;;;5012142;28;20488;-80
2022/10/12 10:51:10;;;;;;;9.27;3.03;;;;;;;;;;5025095;28;20061;-82
2022/10/12 10:53:44;;;;;;;7.57;3.05;;;;;;;;;;5029066;28;20068;-80
2022/10/12 10:56:13;;;;;;;11.23;3.13;;;;;;;;;;5026855;28;20483;-81
2022/10/12 10:58:48;;;;;;;7.57;3.40;;;;;;;;;;5030422;28;20130;-81
2022/10/12 11:01:52;;;;;;;11.48;2.97;;;;;;;;;;5025430;28;20091;-81
2022/10/12 11:04:44;;;;;;;7.35;2.90;;;;;;;;;;4953587;28;20537;-81
2022/10/12 11:07:21;;;;;;;8.57;2.90;;;;;;;;;;4951459;28;20129;-81
2022/10/12 11:09:53;;;;;;;13.77;3.10;;;;;;;;;;5004180;28;20053;-80
2022/10/12 11:12:24;;;;;;;10.40;3.03;;;;;;;;;;5028065;28;20052;-82
2022/10/12 11:15:16;;;;;;;8.82;2.78;;;;;;;;;;5023975;28;20052;-80
2022/10/12 11:17:45;;;;;;;9.75;2.90;;;;;;;;;;5027884;28;20049;-80
2022/10/12 11:20:36;;;;;;;11.52;2.55;;;;;;;;;;5026488;28;20511;-80
2022/10/12 11:23:14;;;;;;;8.13;2.85;;;;;;;;;;5027615;28;20056;-79
2022/10/12 11:25:47;;;;;;;11.52;2.80;;;;;;;;;;5025168;28;20040;-79
2022/10/12 11:28:14;;;;;;;8.43;2.85;;;;;;;;;;5025137;28;20061;-80
2022/10/12 11:30:43;;;;;;;9.60;3.10;;;;;;;;;;5023361;28;20033;-80
2022/10/12 11:33:15;;;;;;;6.57;2.38;;;;;;;;;;5015945;28;20042;-80
2022/10/12 11:35:42;;;;;;;11.55;3.10;;;;;;;;;;5026120;28;20128;-80
2022/10/12 11:38:28;;;;;;;11.00;2.65;;;;;;;;;;5026114;28;20041;-80
2022/10/12 11:40:59;;;;;;;7.40;2.72;;;;;;;;;;5027836;28;20516;-80
2022/10/12 11:43:28;;;;;;;7.88;2.65;;;;;;;;;;5027827;28;20053;-81
2022/10/12 11:45:56;;;;;;;10.70;3.05;;;;;;;;;;5024185;28;20051;-80
2022/10/12 11:48:34;;;;;;;8.15;2.78;;;;;;;;;;5024765;28;20111;-80
2022/10/12 11:51:01;;;;;;;9.88;2.88;;;;;;;;;;5022673;28;20392;-80
2022/10/12 11:53:42;;;;;;;11.90;3.08;;;;;;;;;;5025964;28;20041;-80
2022/10/12 11:56:25;;;;;;;10.13;2.42;;;;;;;;;;5021541;28;20045;-80
2022/10/12 11:58:54;;;;;;;8.65;2.90;;;;;;;;;;5022315;28;20049;-80
2022/10/12 12:01:30;;;;;;;9.68;2.60;;;;;;;;;;5021663;28;20396;-80
2022/10/12 12:03:59;;;;;;;6.97;2.83;;;;;;;;;;5029215;28;20508;-80
2022/10/12 12:06:28;;;;;;;8.43;3.03;;;;;;;;;;5024316;28;20100;-80
2022/10/12 12:09:03;;;;;;;12.40;3.53;;;;;;;;;;5026698;28;20059;-80
2022/10/12 12:11:30;;;;;;;10.10;3.22;;;;;;;;;;5021143;28;20476;-81
2022/10/12 12:14:15;;;;;;;7.88;2.97;;;;;;;;;;5027670;28;20041;-81
2022/10/12 12:16:42;;;;;;;7.50;2.60;;;;;;;;;;5029551;28;20072;-80
2022/10/12 12:19:35;;;;;;;7.38;2.80;;;;;;;;;;5021187;28;20045;-81
2022/10/12 12:22:13;;;;;;;6.85;2.50;;;;;;;;;;5030421;28;20409;-81
2022/10/12 12:24:49;;;;;;;7.25;2.75;;;;;;;;;;5026070;28;20049;-81
2022/10/12 12:27:23;;;;;;;8.18;2.65;;;;;;;;;;5027044;28;20041;-80
2022/10/12 12:29:52;;;;;;;8.02;2.92;;;;;;;;;;5020222;28;20044;-80
2022/10/12 12:32:19;;;;;;;8.00;2.40;;;;;;;;;;5022987;28;20524;-80
2022/10/12 12:34:50;;;;;;;7.32;2.90;;;;;;;;;;5024564;28;20037;-80
2022/10/12 12:37:20;;;;;;;6.88;2.90;;;;;;;;;;5022393;28;20121;-80
2022/10/12 12:39:50;;;;;;;6.25;2.97;;;;;;;;;;5024403;28;20778;-80
2022/10/12 12:42:21;;;;;;;11.38;3.05;;;;;;;;;;5028917;28;20045;-81
2022/10/12 12:44:47;;;;;;;10.93;2.80;;;;;;;;;;5027405;28;20052;-80
2022/10/12 12:47:13;;;;;;;6.85;2.90;;;;;;;;;;5028141;28;20041;-80
2022/10/12 12:49:41;;;;;;;7.97;2.72;;;;;;;;;;5021702;28;20128;-81
2022/10/12 12:52:12;;;;;;;12.98;3.38;;;;;;;;;;5022842;28;20132;-80
2022/10/12 12:54:51;;;;;;;6.18;2.83;;;;;;;;;;5025954;28;20045;-81
2022/10/12 12:57:26;;;;;;;5.82;2.80;;;;;;;;;;5024796;28;20102;-80
2022/10/12 13:00:02;;;;;;;9.55;2.92;;;;;;;;;;5018323;28;20239;-81
2022/10/12 13:02:41;;;;;;;7.25;3.22;;;;;;;;;;5025005;28;20339;-80
2022/10/12 13:05:36;;;;;;;6.57;2.80;;;;;;;;;;5026683;28;20396;-80
2022/10/12 13:08:05;;;;;;;9.10;2.78;;;;;;;;;;5026944;28;20049;-82
2022/10/12 13:10:31;;;;;;;8.18;2.85;;;;;;;;;;5013137;28;20037;-81
2022/10/12 13:13:03;;;;;;;7.50;3.33;;;;;;;;;;5029275;28;20068;-80
2022/10/12 13:15:56;;;;;;;10.50;3.10;;;;;;;;;;5035862;28;20037;-81
2022/10/12 13:18:25;;;;;;;11.07;3.40;;;;;;;;;;5003958;28;20057;-80
2022/10/12 13:20:51;;;;;;;10.25;3.08;;;;;;;;;;5032643;28;20037;-79
2022/10/12 13:23:20;;;;;;;8.07;2.90;;;;;;;;;;5033840;28;20440;-80
2022/10/12 13:25:47;;;;;;;8.93;3.10;;;;;;;;;;5032593;28;20041;-80
2022/10/12 13:28:34;;;;;;;10.50;3.25;;;;;;;;;;5032712;28;20045;-80
2022/10/12 13:31:04;;;;;;;10.10;3.40;;;;;;;;;;5028828;28;20069;-80
2022/10/12 13:33:33;;;;;;;7.20;3.00;;;;;;;;;;5032095;28;20049;-80
2022/10/12 13:35:59;;;;;;;9.00;3.10;;;;;;;;;;5025820;28;20075;-80
2022/10/12 13:38:27;;;;;;;5.57;3.13;;;;;;;;;;5029745;28;20060;-80
2022/10/12 13:41:10;;;;;;;9.52;3.05;;;;;;;;;;5027030;28;20081;-80
2022/10/12 13:43:36;;;;;;;;;;;;;;;;;;5033182;28;20045;-80
2022/10/12 13:46:03;;;;;;;8.55;3.00;;;;;;;;;;5028448;28;19929;-80
2022/10/12 13:48:29;;;;;;;11.18;2.90;;;;;;;;;;5031704;28;20049;-80
2022/10/12 13:51:05;;;;;;;8.38;3.05;;;;;;;;;;5032101;28;20049;-80
2022/10/12 13:53:40;;;;;;;7.60;3.13;;;;;;;;;;5027944;28;20095;-80
2022/10/12 13:56:25;;;;;;;10.43;3.40;;;;;;;;;;5031540;28;20056;-80
2022/10/12 13:58:58;;;;;;;10.18;3.38;;;;;;;;;;5025678;28;20052;-77
2022/10/12 14:01:24;;;;;;;;;;;;;;;;;;5028751;28;20048;-77
2022/10/12 14:03:50;;;;;;;8.48;3.45;;;;;;;;;;5029854;28;19921;-77
2022/10/12 14:06:23;;;;;;;7.40;2.83;;;;;;;;;;5027545;28;20072;-77
2022/10/12 14:08:49;;;;;;;7.45;2.95;;;;;;;;;;5027617;28;20045;-77
2022/10/12 14:11:19;;;;;;;7.82;3.30;;;;;;;;;;5018161;28;20045;-76
2022/10/12 14:13:45;;;;;;;7.20;2.95;;;;;;;;;;5015400;28;20164;-76
2022/10/12 14:16:12;;;;;;;6.50;2.70;;;;;;;;;;5030585;28;20064;-77
2022/10/12 14:18:39;;;;;;;8.00;3.08;;;;;;;;;;5025786;28;20084;-77
2022/10/12 14:21:05;;;;;;;8.27;3.03;;;;;;;;;;5029623;28;20448;-78
2022/10/12 14:23:31;;;;;;;8.23;3.40;;;;;;;;;;5016276;28;20599;-78
2022/10/12 14:25:57;;;;;;;6.50;2.80;;;;;;;;;;5026396;28;20481;-77
2022/10/12 14:28:31;;;;;;;7.25;2.88;;;;;;;;;;5030199;28;20460;-77
2022/10/12 14:30:57;;;;;;;6.93;2.92;;;;;;;;;;5032394;28;20045;-78
2022/10/12 14:33:24;;;;;;;8.68;3.05;;;;;;;;;;5026525;28;20069;-78
2022/10/12 14:35:51;;;;;;;5.88;3.17;;;;;;;;;;5016935;28;20041;-78
2022/10/12 14:38:37;;;;;;;6.40;2.78;;;;;;;;;;5025911;28;20041;-78
2022/10/12 14:41:22;;;;;;;7.95;3.13;;;;;;;;;;5026673;28;20132;-78
2022/10/12 14:44:02;;;;;;;7.28;2.72;;;;;;;;;;5030758;28;20041;-77
2022/10/12 14:46:28;;;;;;;9.45;3.20;;;;;;;;;;5024228;28;20835;-78
2022/10/12 14:48:54;;;;;;;7.15;3.10;;;;;;;;;;5031142;28;20042;-77
2022/10/12 14:51:21;;;;;;;9.45;2.90;;;;;;;;;;5022764;28;20385;-77
2022/10/12 14:53:57;;;;;;;5.85;2.90;;;;;;;;;;5028991;28;20098;-77